Detall de PIREP

Printer-friendly versionPDF version

[2013/06/18 08:28:00]
Flight IATA:CT1004
Pilot Number:042
Company ICAO:CAT
Aircraft Type:AT72/F
PAX:18
Departing Airport: LERS
Destination Airport: LFMP
Alternate Airport:LFBO
Online: VATSIM
Route:ARBEK A29 REBUL H110 BEXUR A27 KANIG
Flight Level:F180
No Slew and time accel
No pause
Crash detect
Detect pilot in Cockpit between each 30 and 45 minutes
08:28 Zero fuel Weight: 40068 Lbs, Fuel Weight: 11199 Lbs
08:28 VATSIM:LERS 180800Z VRB01KT 9999 FEW040 24/20 Q1009
08:28 VATSIM:LFMP 180800Z VRB03KT 8000 -RA BKN016 SCT130 20/18 Q1011 NOSIG
08:29 VOICE CATALONIAN/FLAMA DEL CANIGO
08:40 Parking Brakes off
08:47 Take-off
08:47 Take off Weight: 51182 Lbs
08:47 Wind: 000º @ 000 Knots Heading: 068º
08:47 POS N41º 08´ 55´´ E001º 10´ 17´´
08:47 Gear Up: 124 Knots
08:47 Flaps:1 at 124 Knots
08:48 Flaps:0 at 124 Knots
08:58 TOC
08:58 Fuel Weight: 10622 Lb
09:02 Wind:313º@046 Knots Heading: 070º Ground Speed: 312 Knots Altitude 18028 ft
09:11 TOD
09:11 Fuel Weight: 10181 Lb
09:17 Wind:330º@033 Knots Heading: 029º Ground Speed: 248 Knots Altitude 11601 ft
09:27 Flaps:1 at 190 Knots
09:28 Gear Down: 171 Knots
09:28 Flaps:2 at 171 Knots
09:31 TouchDown:Rate -126 ft/min Speed: 101 Knots
09:32 Wind:000º@002 Knots Heading: 328º Ground Speed: 078 Knots Altitude 147 ft
09:32 Flaps:0 at 26 Knots
09:32 VATSIM:LFMP 180900Z 14004KT 070V170 9999 -RA BKN013 BKN027 21/18 Q1012 NOSIG
09:32 Land
09:32 Wind:000º@002 Knots
09:32 Heading: 327º
09:32 Flight Duration: 00:45
09:32 Landing Weight: 49947 Lbs
09:32 POS N42º 44´ 47´´ E002º 52´ 04´´
09:35 Parking brakes on
09:35 Block to Block Duration: 00:55
09:35 Final Fuel: 9847 Lbls
09:35 Spent Fuel: 1351 Lbls
09:35 Flight Length: 184 NM
09:35 TOD Land Length: 78 NM

Exportar CSV

Powered by Drupal - Modified by Danger4k